sensor_id;sensor_type;location;lat;lon;timestamp;P1;durP1;ratioP1;P2;durP2;ratioP2
1460;SDS011;724;49.910;12.530;2024-02-15T00:00:28;16.90;;;16.00;;
1460;SDS011;724;49.910;12.530;2024-02-15T00:02:55;16.65;;;15.85;;
1460;SDS011;724;49.910;12.530;2024-02-15T00:05:23;16.50;;;15.70;;
1460;SDS011;724;49.910;12.530;2024-02-15T00:07:49;16.50;;;15.70;;
1460;SDS011;724;49.910;12.530;2024-02-15T00:10:18;16.40;;;15.60;;
1460;SDS011;724;49.910;12.530;2024-02-15T00:12:46;16.70;;;15.90;;
1460;SDS011;724;49.910;12.530;2024-02-15T00:15:15;16.58;;;15.77;;
1460;SDS011;724;49.910;12.530;2024-02-15T00:17:45;16.90;;;16.00;;
1460;SDS011;724;49.910;12.530;2024-02-15T00:20:13;17.40;;;16.50;;
1460;SDS011;724;49.910;12.530;2024-02-15T00:22:42;17.10;;;16.20;;
1460;SDS011;724;49.910;12.530;2024-02-15T00:25:10;17.20;;;16.30;;
1460;SDS011;724;49.910;12.530;2024-02-15T00:27:40;17.23;;;16.33;;
1460;SDS011;724;49.910;12.530;2024-02-15T00:30:08;17.20;;;16.30;;
1460;SDS011;724;49.910;12.530;2024-02-15T00:32:35;17.08;;;16.17;;
1460;SDS011;724;49.910;12.530;2024-02-15T00:35:03;16.75;;;15.93;;
1460;SDS011;724;49.910;12.530;2024-02-15T00:37:32;16.70;;;15.90;;
1460;SDS011;724;49.910;12.530;2024-02-15T00:39:59;17.30;;;16.40;;
1460;SDS011;724;49.910;12.530;2024-02-15T00:42:28;17.02;;;16.13;;
1460;SDS011;724;49.910;12.530;2024-02-15T00:44:59;16.90;;;16.00;;
1460;SDS011;724;49.910;12.530;2024-02-15T00:47:27;16.58;;;15.77;;
1460;SDS011;724;49.910;12.530;2024-02-15T00:49:54;16.55;;;15.75;;
1460;SDS011;724;49.910;12.530;2024-02-15T00:52:20;16.20;;;15.40;;
1460;SDS011;724;49.910;12.530;2024-02-15T00:54:47;16.40;;;15.60;;
1460;SDS011;724;49.910;12.530;2024-02-15T00:57:14;16.52;;;15.73;;
1460;SDS011;724;49.910;12.530;2024-02-15T00:59:41;16.40;;;15.60;;
1460;SDS011;724;49.910;12.530;2024-02-15T01:02:09;17.10;;;16.20;;
1460;SDS011;724;49.910;12.530;2024-02-15T01:04:37;16.40;;;15.60;;
1460;SDS011;724;49.910;12.530;2024-02-15T01:07:05;17.13;;;16.23;;
1460;SDS011;724;49.910;12.530;2024-02-15T01:09:33;16.85;;;15.98;;
1460;SDS011;724;49.910;12.530;2024-02-15T01:11:59;16.65;;;15.85;;
1460;SDS011;724;49.910;12.530;2024-02-15T01:14:28;17.10;;;16.20;;
1460;SDS011;724;49.910;12.530;2024-02-15T01:16:55;17.00;;;16.10;;
1460;SDS011;724;49.910;12.530;2024-02-15T01:19:23;17.15;;;16.25;;
1460;SDS011;724;49.910;12.530;2024-02-15T01:21:50;17.00;;;16.10;;
1460;SDS011;724;49.910;12.530;2024-02-15T01:24:18;17.17;;;16.27;;
1460;SDS011;724;49.910;12.530;2024-02-15T01:26:45;17.40;;;16.50;;
1460;SDS011;724;49.910;12.530;2024-02-15T01:29:13;17.60;;;16.70;;
1460;SDS011;724;49.910;12.530;2024-02-15T01:31:40;17.90;;;17.00;;
1460;SDS011;724;49.910;12.530;2024-02-15T01:34:07;18.30;;;17.40;;
1460;SDS011;724;49.910;12.530;2024-02-15T01:36:35;17.90;;;17.00;;
1460;SDS011;724;49.910;12.530;2024-02-15T01:39:02;18.20;;;17.30;;
1460;SDS011;724;49.910;12.530;2024-02-15T01:41:29;17.35;;;16.45;;
1460;SDS011;724;49.910;12.530;2024-02-15T01:43:56;17.30;;;16.40;;
1460;SDS011;724;49.910;12.530;2024-02-15T01:46:23;17.70;;;16.80;;
1460;SDS011;724;49.910;12.530;2024-02-15T01:48:51;17.90;;;17.00;;
1460;SDS011;724;49.910;12.530;2024-02-15T01:51:17;18.02;;;17.13;;
1460;SDS011;724;49.910;12.530;2024-02-15T01:53:46;18.45;;;17.55;;
1460;SDS011;724;49.910;12.530;2024-02-15T01:56:13;18.25;;;17.35;;
1460;SDS011;724;49.910;12.530;2024-02-15T01:58:42;18.60;;;17.70;;
1460;SDS011;724;49.910;12.530;2024-02-15T02:01:11;17.90;;;17.00;;
1460;SDS011;724;49.910;12.530;2024-02-15T02:03:39;18.08;;;17.17;;
1460;SDS011;724;49.910;12.530;2024-02-15T02:06:06;18.00;;;17.10;;
1460;SDS011;724;49.910;12.530;2024-02-15T02:08:34;17.90;;;17.00;;
1460;SDS011;724;49.910;12.530;2024-02-15T02:11:02;17.95;;;17.05;;
1460;SDS011;724;49.910;12.530;2024-02-15T02:13:29;17.90;;;17.00;;
1460;SDS011;724;49.910;12.530;2024-02-15T02:15:56;17.60;;;16.70;;
1460;SDS011;724;49.910;12.530;2024-02-15T02:18:24;17.40;;;16.50;;
1460;SDS011;724;49.910;12.530;2024-02-15T02:20:51;17.80;;;16.90;;
1460;SDS011;724;49.910;12.530;2024-02-15T02:23:19;17.15;;;16.25;;
1460;SDS011;724;49.910;12.530;2024-02-15T02:25:52;17.70;;;16.80;;
1460;SDS011;724;49.910;12.530;2024-02-15T02:28:21;17.80;;;16.90;;
1460;SDS011;724;49.910;12.530;2024-02-15T02:30:48;18.10;;;17.20;;
1460;SDS011;724;49.910;12.530;2024-02-15T02:33:15;18.00;;;17.10;;
1460;SDS011;724;49.910;12.530;2024-02-15T02:35:43;18.10;;;17.20;;
1460;SDS011;724;49.910;12.530;2024-02-15T02:38:11;18.25;;;17.35;;
1460;SDS011;724;49.910;12.530;2024-02-15T02:40:39;18.00;;;17.10;;
1460;SDS011;724;49.910;12.530;2024-02-15T02:43:08;18.27;;;17.38;;
1460;SDS011;724;49.910;12.530;2024-02-15T02:45:34;18.20;;;17.30;;
1460;SDS011;724;49.910;12.530;2024-02-15T02:48:01;18.40;;;17.50;;
1460;SDS011;724;49.910;12.530;2024-02-15T02:50:28;18.80;;;17.90;;
1460;SDS011;724;49.910;12.530;2024-02-15T02:52:55;18.80;;;17.90;;
1460;SDS011;724;49.910;12.530;2024-02-15T02:55:24;18.80;;;17.90;;
1460;SDS011;724;49.910;12.530;2024-02-15T02:57:52;18.20;;;17.30;;
1460;SDS011;724;49.910;12.530;2024-02-15T03:00:21;18.20;;;17.30;;
1460;SDS011;724;49.910;12.530;2024-02-15T03:02:48;18.75;;;17.85;;
1460;SDS011;724;49.910;12.530;2024-02-15T03:05:15;19.10;;;18.10;;
1460;SDS011;724;49.910;12.530;2024-02-15T03:07:45;19.40;;;18.40;;
1460;SDS011;724;49.910;12.530;2024-02-15T03:10:13;19.02;;;18.02;;
1460;SDS011;724;49.910;12.530;2024-02-15T03:12:41;18.50;;;17.60;;
1460;SDS011;724;49.910;12.530;2024-02-15T03:15:12;19.15;;;18.15;;
1460;SDS011;724;49.910;12.530;2024-02-15T03:17:41;19.20;;;18.20;;
1460;SDS011;724;49.910;12.530;2024-02-15T03:20:09;19.25;;;18.25;;
1460;SDS011;724;49.910;12.530;2024-02-15T03:22:37;19.52;;;18.52;;
1460;SDS011;724;49.910;12.530;2024-02-15T03:25:05;18.52;;;17.63;;
1460;SDS011;724;49.910;12.530;2024-02-15T03:27:33;18.30;;;17.40;;
1460;SDS011;724;49.910;12.530;2024-02-15T03:30:02;18.65;;;17.75;;
1460;SDS011;724;49.910;12.530;2024-02-15T03:32:30;18.60;;;17.70;;
1460;SDS011;724;49.910;12.530;2024-02-15T03:34:58;18.70;;;17.80;;
1460;SDS011;724;49.910;12.530;2024-02-15T03:37:25;18.70;;;17.80;;
1460;SDS011;724;49.910;12.530;2024-02-15T03:39:53;18.83;;;17.90;;
1460;SDS011;724;49.910;12.530;2024-02-15T03:42:19;19.25;;;18.25;;
1460;SDS011;724;49.910;12.530;2024-02-15T03:44:46;18.60;;;17.70;;
1460;SDS011;724;49.910;12.530;2024-02-15T03:47:13;18.48;;;17.58;;
1460;SDS011;724;49.910;12.530;2024-02-15T03:49:40;18.80;;;17.90;;
1460;SDS011;724;49.910;12.530;2024-02-15T03:52:09;18.58;;;17.67;;
1460;SDS011;724;49.910;12.530;2024-02-15T03:54:36;18.60;;;17.70;;
1460;SDS011;724;49.910;12.530;2024-02-15T03:57:03;17.98;;;17.08;;
1460;SDS011;724;49.910;12.530;2024-02-15T03:59:31;18.20;;;17.30;;
1460;SDS011;724;49.910;12.530;2024-02-15T04:02:00;18.08;;;17.17;;
1460;SDS011;724;49.910;12.530;2024-02-15T04:04:28;18.70;;;17.80;;
1460;SDS011;724;49.910;12.530;2024-02-15T04:06:56;18.48;;;17.58;;
1460;SDS011;724;49.910;12.530;2024-02-15T04:09:24;18.30;;;17.40;;
1460;SDS011;724;49.910;12.530;2024-02-15T04:11:51;18.80;;;17.90;;
1460;SDS011;724;49.910;12.530;2024-02-15T04:14:18;18.50;;;17.60;;
1460;SDS011;724;49.910;12.530;2024-02-15T04:16:45;19.00;;;18.00;;
1460;SDS011;724;49.910;12.530;2024-02-15T04:19:11;17.80;;;16.90;;
1460;SDS011;724;49.910;12.530;2024-02-15T04:21:38;17.75;;;16.85;;
1460;SDS011;724;49.910;12.530;2024-02-15T04:24:09;17.70;;;16.80;;
1460;SDS011;724;49.910;12.530;2024-02-15T04:26:37;17.60;;;16.70;;
1460;SDS011;724;49.910;12.530;2024-02-15T04:29:04;17.00;;;16.10;;
1460;SDS011;724;49.910;12.530;2024-02-15T04:31:33;16.70;;;15.90;;
1460;SDS011;724;49.910;12.530;2024-02-15T04:34:04;16.60;;;15.80;;
1460;SDS011;724;49.910;12.530;2024-02-15T04:36:30;17.02;;;16.13;;
1460;SDS011;724;49.910;12.530;2024-02-15T04:38:59;16.90;;;16.00;;
1460;SDS011;724;49.910;12.530;2024-02-15T04:41:27;16.13;;;15.32;;
1460;SDS011;724;49.910;12.530;2024-02-15T04:43:55;16.60;;;15.80;;
1460;SDS011;724;49.910;12.530;2024-02-15T04:46:22;16.55;;;15.75;;
1460;SDS011;724;49.910;12.530;2024-02-15T04:48:49;16.60;;;15.80;;
1460;SDS011;724;49.910;12.530;2024-02-15T04:51:16;16.20;;;15.40;;
1460;SDS011;724;49.910;12.530;2024-02-15T04:53:44;16.50;;;15.70;;
1460;SDS011;724;49.910;12.530;2024-02-15T04:56:13;16.50;;;15.70;;
1460;SDS011;724;49.910;12.530;2024-02-15T04:58:41;15.95;;;15.15;;
1460;SDS011;724;49.910;12.530;2024-02-15T05:01:19;16.40;;;15.60;;
1460;SDS011;724;49.910;12.530;2024-02-15T05:03:45;15.35;;;14.55;;
1460;SDS011;724;49.910;12.530;2024-02-15T05:06:12;15.40;;;14.60;;
1460;SDS011;724;49.910;12.530;2024-02-15T05:08:40;15.30;;;14.50;;
1460;SDS011;724;49.910;12.530;2024-02-15T05:11:08;14.50;;;13.80;;
1460;SDS011;724;49.910;12.530;2024-02-15T05:13:40;14.80;;;14.00;;
1460;SDS011;724;49.910;12.530;2024-02-15T05:16:07;14.40;;;13.70;;
1460;SDS011;724;49.910;12.530;2024-02-15T05:18:35;14.40;;;13.70;;
1460;SDS011;724;49.910;12.530;2024-02-15T05:21:03;14.50;;;13.80;;
1460;SDS011;724;49.910;12.530;2024-02-15T05:23:34;14.40;;;13.70;;
1460;SDS011;724;49.910;12.530;2024-02-15T05:26:01;14.50;;;13.80;;
1460;SDS011;724;49.910;12.530;2024-02-15T05:28:28;14.43;;;13.73;;
1460;SDS011;724;49.910;12.530;2024-02-15T05:31:08;14.40;;;13.70;;
1460;SDS011;724;49.910;12.530;2024-02-15T05:33:40;13.90;;;13.20;;
1460;SDS011;724;49.910;12.530;2024-02-15T05:36:08;13.90;;;13.20;;
1460;SDS011;724;49.910;12.530;2024-02-15T05:38:36;13.60;;;12.90;;
1460;SDS011;724;49.910;12.530;2024-02-15T05:41:03;14.20;;;13.50;;
1460;SDS011;724;49.910;12.530;2024-02-15T05:43:30;13.80;;;13.10;;
1460;SDS011;724;49.910;12.530;2024-02-15T05:45:57;12.82;;;12.13;;
1460;SDS011;724;49.910;12.530;2024-02-15T05:48:25;13.20;;;12.50;;
1460;SDS011;724;49.910;12.530;2024-02-15T05:50:54;13.88;;;13.18;;
1460;SDS011;724;49.910;12.530;2024-02-15T05:53:22;13.70;;;13.00;;
1460;SDS011;724;49.910;12.530;2024-02-15T05:55:49;13.50;;;12.80;;
1460;SDS011;724;49.910;12.530;2024-02-15T05:58:16;13.60;;;12.90;;
1460;SDS011;724;49.910;12.530;2024-02-15T06:00:42;15.15;;;14.35;;
1460;SDS011;724;49.910;12.530;2024-02-15T06:03:14;14.80;;;14.00;;
1460;SDS011;724;49.910;12.530;2024-02-15T06:05:41;15.30;;;14.50;;
1460;SDS011;724;49.910;12.530;2024-02-15T06:08:09;15.20;;;14.40;;
1460;SDS011;724;49.910;12.530;2024-02-15T06:10:37;15.27;;;14.48;;
1460;SDS011;724;49.910;12.530;2024-02-15T06:13:04;14.35;;;13.65;;
1460;SDS011;724;49.910;12.530;2024-02-15T06:15:31;14.20;;;13.50;;
1460;SDS011;724;49.910;12.530;2024-02-15T06:17:58;14.00;;;13.30;;
1460;SDS011;724;49.910;12.530;2024-02-15T06:20:25;13.85;;;13.15;;
1460;SDS011;724;49.910;12.530;2024-02-15T06:22:54;13.90;;;13.20;;
1460;SDS011;724;49.910;12.530;2024-02-15T06:25:23;14.00;;;13.30;;
1460;SDS011;724;49.910;12.530;2024-02-15T06:27:50;14.30;;;13.60;;
1460;SDS011;724;49.910;12.530;2024-02-15T06:30:23;13.48;;;12.77;;
1460;SDS011;724;49.910;12.530;2024-02-15T06:33:07;14.60;;;13.90;;
1460;SDS011;724;49.910;12.530;2024-02-15T06:36:03;14.00;;;13.30;;
1460;SDS011;724;49.910;12.530;2024-02-15T06:38:48;14.25;;;13.55;;
1460;SDS011;724;49.910;12.530;2024-02-15T06:41:34;14.60;;;13.90;;
1460;SDS011;724;49.910;12.530;2024-02-15T06:44:01;14.40;;;13.70;;
1460;SDS011;724;49.910;12.530;2024-02-15T06:46:28;14.45;;;13.75;;
1460;SDS011;724;49.910;12.530;2024-02-15T06:48:54;14.40;;;13.70;;
1460;SDS011;724;49.910;12.530;2024-02-15T06:51:23;14.75;;;13.98;;
1460;SDS011;724;49.910;12.530;2024-02-15T06:53:50;15.25;;;14.45;;
1460;SDS011;724;49.910;12.530;2024-02-15T06:56:20;14.60;;;13.90;;
1460;SDS011;724;49.910;12.530;2024-02-15T06:58:49;14.95;;;14.15;;
1460;SDS011;724;49.910;12.530;2024-02-15T07:01:15;14.65;;;13.93;;
1460;SDS011;724;49.910;12.530;2024-02-15T07:03:43;14.95;;;14.15;;
1460;SDS011;724;49.910;12.530;2024-02-15T07:06:10;14.52;;;13.82;;
1460;SDS011;724;49.910;12.530;2024-02-15T07:08:38;14.52;;;13.82;;
1460;SDS011;724;49.910;12.530;2024-02-15T07:11:06;14.90;;;14.10;;
1460;SDS011;724;49.910;12.530;2024-02-15T07:13:34;14.30;;;13.60;;
1460;SDS011;724;49.910;12.530;2024-02-15T07:16:05;14.93;;;14.13;;
1460;SDS011;724;49.910;12.530;2024-02-15T07:18:33;14.60;;;13.90;;
1460;SDS011;724;49.910;12.530;2024-02-15T07:21:00;14.32;;;13.63;;
1460;SDS011;724;49.910;12.530;2024-02-15T07:23:29;15.00;;;14.20;;
1460;SDS011;724;49.910;12.530;2024-02-15T07:25:55;14.90;;;14.10;;
1460;SDS011;724;49.910;12.530;2024-02-15T07:28:23;14.50;;;13.80;;
1460;SDS011;724;49.910;12.530;2024-02-15T07:30:51;14.50;;;13.80;;
1460;SDS011;724;49.910;12.530;2024-02-15T07:33:20;14.45;;;13.75;;
1460;SDS011;724;49.910;12.530;2024-02-15T07:35:48;14.80;;;14.00;;
1460;SDS011;724;49.910;12.530;2024-02-15T07:38:16;14.40;;;13.70;;
1460;SDS011;724;49.910;12.530;2024-02-15T07:40:43;14.80;;;14.00;;
1460;SDS011;724;49.910;12.530;2024-02-15T07:43:10;14.90;;;14.10;;
1460;SDS011;724;49.910;12.530;2024-02-15T07:45:36;14.90;;;14.10;;
1460;SDS011;724;49.910;12.530;2024-02-15T07:48:04;15.20;;;14.40;;
1460;SDS011;724;49.910;12.530;2024-02-15T07:50:32;15.00;;;14.20;;
1460;SDS011;724;49.910;12.530;2024-02-15T07:53:01;15.70;;;14.90;;
1460;SDS011;724;49.910;12.530;2024-02-15T07:55:30;15.40;;;14.60;;
1460;SDS011;724;49.910;12.530;2024-02-15T07:57:58;15.50;;;14.70;;
1460;SDS011;724;49.910;12.530;2024-02-15T08:00:26;15.50;;;14.70;;
1460;SDS011;724;49.910;12.530;2024-02-15T08:02:53;15.63;;;14.82;;
1460;SDS011;724;49.910;12.530;2024-02-15T08:05:20;15.60;;;14.80;;
1460;SDS011;724;49.910;12.530;2024-02-15T08:07:48;15.15;;;14.35;;
1460;SDS011;724;49.910;12.530;2024-02-15T08:10:15;15.43;;;14.63;;
1460;SDS011;724;49.910;12.530;2024-02-15T08:12:43;15.23;;;14.43;;
1460;SDS011;724;49.910;12.530;2024-02-15T08:15:11;15.20;;;14.40;;
1460;SDS011;724;49.910;12.530;2024-02-15T08:17:39;15.30;;;14.50;;
1460;SDS011;724;49.910;12.530;2024-02-15T08:20:07;15.38;;;14.57;;
1460;SDS011;724;49.910;12.530;2024-02-15T08:22:36;15.40;;;14.60;;
1460;SDS011;724;49.910;12.530;2024-02-15T08:25:06;15.40;;;14.60;;
1460;SDS011;724;49.910;12.530;2024-02-15T08:27:35;15.10;;;14.30;;
1460;SDS011;724;49.910;12.530;2024-02-15T08:30:06;15.10;;;14.30;;
1460;SDS011;724;49.910;12.530;2024-02-15T08:32:35;14.90;;;14.10;;
1460;SDS011;724;49.910;12.530;2024-02-15T08:35:03;14.60;;;13.90;;
1460;SDS011;724;49.910;12.530;2024-02-15T08:37:30;15.00;;;14.20;;
1460;SDS011;724;49.910;12.530;2024-02-15T08:39:59;15.10;;;14.30;;
1460;SDS011;724;49.910;12.530;2024-02-15T08:42:27;15.00;;;14.20;;
1460;SDS011;724;49.910;12.530;2024-02-15T08:44:54;15.10;;;14.30;;
1460;SDS011;724;49.910;12.530;2024-02-15T08:47:20;15.23;;;14.43;;
1460;SDS011;724;49.910;12.530;2024-02-15T08:49:47;15.10;;;14.30;;
1460;SDS011;724;49.910;12.530;2024-02-15T08:52:14;15.10;;;14.30;;
1460;SDS011;724;49.910;12.530;2024-02-15T08:54:43;15.20;;;14.40;;
1460;SDS011;724;49.910;12.530;2024-02-15T08:57:10;15.00;;;14.20;;
1460;SDS011;724;49.910;12.530;2024-02-15T08:59:40;15.25;;;14.45;;
1460;SDS011;724;49.910;12.530;2024-02-15T09:02:07;15.00;;;14.20;;
1460;SDS011;724;49.910;12.530;2024-02-15T09:04:34;14.90;;;14.10;;
1460;SDS011;724;49.910;12.530;2024-02-15T09:07:01;15.15;;;14.35;;
1460;SDS011;724;49.910;12.530;2024-02-15T09:09:29;15.00;;;14.20;;
1460;SDS011;724;49.910;12.530;2024-02-15T09:11:56;14.50;;;13.80;;
1460;SDS011;724;49.910;12.530;2024-02-15T09:14:23;14.57;;;13.88;;
1460;SDS011;724;49.910;12.530;2024-02-15T09:16:51;14.40;;;13.70;;
1460;SDS011;724;49.910;12.530;2024-02-15T09:19:18;14.30;;;13.60;;
1460;SDS011;724;49.910;12.530;2024-02-15T09:21:45;14.60;;;13.90;;
1460;SDS011;724;49.910;12.530;2024-02-15T09:24:12;14.60;;;13.90;;
1460;SDS011;724;49.910;12.530;2024-02-15T09:26:41;14.93;;;14.13;;
1460;SDS011;724;49.910;12.530;2024-02-15T09:29:07;14.50;;;13.80;;
1460;SDS011;724;49.910;12.530;2024-02-15T09:31:45;14.25;;;13.55;;
1460;SDS011;724;49.910;12.530;2024-02-15T09:34:14;14.40;;;13.70;;
1460;SDS011;724;49.910;12.530;2024-02-15T09:36:41;13.90;;;13.20;;
1460;SDS011;724;49.910;12.530;2024-02-15T09:39:08;14.30;;;13.60;;
1460;SDS011;724;49.910;12.530;2024-02-15T09:41:39;14.00;;;13.30;;
1460;SDS011;724;49.910;12.530;2024-02-15T09:44:07;14.23;;;13.52;;
1460;SDS011;724;49.910;12.530;2024-02-15T09:46:35;14.23;;;13.52;;
1460;SDS011;724;49.910;12.530;2024-02-15T09:49:30;14.40;;;13.70;;
1460;SDS011;724;49.910;12.530;2024-02-15T09:52:04;14.40;;;13.70;;
1460;SDS011;724;49.910;12.530;2024-02-15T09:54:37;15.13;;;14.32;;
1460;SDS011;724;49.910;12.530;2024-02-15T09:57:08;14.50;;;13.80;;
1460;SDS011;724;49.910;12.530;2024-02-15T09:59:35;14.57;;;13.88;;
1460;SDS011;724;49.910;12.530;2024-02-15T10:02:02;14.40;;;13.70;;
1460;SDS011;724;49.910;12.530;2024-02-15T10:04:35;14.40;;;13.70;;
1460;SDS011;724;49.910;12.530;2024-02-15T10:07:03;14.88;;;14.07;;
1460;SDS011;724;49.910;12.530;2024-02-15T10:09:30;14.50;;;13.80;;
1460;SDS011;724;49.910;12.530;2024-02-15T10:11:57;14.50;;;13.80;;
1460;SDS011;724;49.910;12.530;2024-02-15T10:14:26;14.80;;;14.00;;
1460;SDS011;724;49.910;12.530;2024-02-15T10:16:54;14.60;;;13.90;;
1460;SDS011;724;49.910;12.530;2024-02-15T10:19:21;14.80;;;14.00;;
1460;SDS011;724;49.910;12.530;2024-02-15T10:21:52;14.80;;;14.00;;
1460;SDS011;724;49.910;12.530;2024-02-15T10:24:21;15.20;;;14.40;;
1460;SDS011;724;49.910;12.530;2024-02-15T10:26:49;15.30;;;14.50;;
1460;SDS011;724;49.910;12.530;2024-02-15T10:29:17;15.32;;;14.52;;
1460;SDS011;724;49.910;12.530;2024-02-15T10:31:52;15.50;;;14.70;;
1460;SDS011;724;49.910;12.530;2024-02-15T10:34:20;15.43;;;14.63;;
1460;SDS011;724;49.910;12.530;2024-02-15T10:36:48;16.30;;;15.50;;
1460;SDS011;724;49.910;12.530;2024-02-15T10:39:17;16.40;;;15.60;;
1460;SDS011;724;49.910;12.530;2024-02-15T10:41:46;16.35;;;15.55;;
1460;SDS011;724;49.910;12.530;2024-02-15T10:44:15;16.70;;;15.90;;
1460;SDS011;724;49.910;12.530;2024-02-15T10:46:44;16.90;;;16.00;;
1460;SDS011;724;49.910;12.530;2024-02-15T10:49:17;17.00;;;16.10;;
1460;SDS011;724;49.910;12.530;2024-02-15T10:51:45;17.20;;;16.30;;
1460;SDS011;724;49.910;12.530;2024-02-15T10:54:19;17.30;;;16.40;;
1460;SDS011;724;49.910;12.530;2024-02-15T10:57:03;17.20;;;16.30;;
1460;SDS011;724;49.910;12.530;2024-02-15T10:59:32;17.50;;;16.60;;
1460;SDS011;724;49.910;12.530;2024-02-15T11:02:03;17.30;;;16.40;;
1460;SDS011;724;49.910;12.530;2024-02-15T11:04:49;17.30;;;16.40;;
1460;SDS011;724;49.910;12.530;2024-02-15T11:07:21;17.10;;;16.20;;
1460;SDS011;724;49.910;12.530;2024-02-15T11:09:52;17.10;;;16.20;;
1460;SDS011;724;49.910;12.530;2024-02-15T11:12:21;17.30;;;16.40;;
1460;SDS011;724;49.910;12.530;2024-02-15T11:14:48;17.00;;;16.10;;
1460;SDS011;724;49.910;12.530;2024-02-15T11:23:13;17.20;;;16.30;;
1460;SDS011;724;49.910;12.530;2024-02-15T11:25:51;17.60;;;16.70;;
1460;SDS011;724;49.910;12.530;2024-02-15T11:31:08;18.08;;;17.17;;
1460;SDS011;724;49.910;12.530;2024-02-15T11:33:37;17.90;;;17.00;;
1460;SDS011;724;49.910;12.530;2024-02-15T11:36:06;18.17;;;17.27;;
1460;SDS011;724;49.910;12.530;2024-02-15T11:38:35;17.90;;;17.00;;
1460;SDS011;724;49.910;12.530;2024-02-15T11:41:04;18.20;;;17.30;;
1460;SDS011;724;49.910;12.530;2024-02-15T11:43:51;18.00;;;17.10;;
1460;SDS011;724;49.910;12.530;2024-02-15T11:46:21;17.90;;;17.00;;
1460;SDS011;724;49.910;12.530;2024-02-15T11:48:50;18.00;;;17.10;;
1460;SDS011;724;49.910;12.530;2024-02-15T11:51:27;17.90;;;17.00;;
1460;SDS011;724;49.910;12.530;2024-02-15T11:54:01;17.70;;;16.80;;
1460;SDS011;724;49.910;12.530;2024-02-15T11:56:32;18.00;;;17.10;;
1460;SDS011;724;49.910;12.530;2024-02-15T11:59:30;17.95;;;17.05;;
1460;SDS011;724;49.910;12.530;2024-02-15T12:02:07;18.27;;;17.38;;
1460;SDS011;724;49.910;12.530;2024-02-15T12:04:52;17.70;;;16.80;;
1460;SDS011;724;49.910;12.530;2024-02-15T12:07:36;17.80;;;16.90;;
1460;SDS011;724;49.910;12.530;2024-02-15T12:10:20;17.65;;;16.75;;
1460;SDS011;724;49.910;12.530;2024-02-15T12:13:06;17.80;;;16.90;;
1460;SDS011;724;49.910;12.530;2024-02-15T12:15:57;17.90;;;17.00;;
1460;SDS011;724;49.910;12.530;2024-02-15T12:18:42;17.80;;;16.90;;
1460;SDS011;724;49.910;12.530;2024-02-15T12:21:10;17.52;;;16.63;;
1460;SDS011;724;49.910;12.530;2024-02-15T12:23:40;17.80;;;16.90;;
1460;SDS011;724;49.910;12.530;2024-02-15T12:26:07;17.80;;;16.90;;
1460;SDS011;724;49.910;12.530;2024-02-15T12:28:35;17.70;;;16.80;;
1460;SDS011;724;49.910;12.530;2024-02-15T12:31:03;17.50;;;16.60;;
1460;SDS011;724;49.910;12.530;2024-02-15T12:33:31;17.70;;;16.80;;
1460;SDS011;724;49.910;12.530;2024-02-15T12:36:05;17.52;;;16.63;;
1460;SDS011;724;49.910;12.530;2024-02-15T12:38:32;17.30;;;16.40;;
1460;SDS011;724;49.910;12.530;2024-02-15T12:41:02;17.50;;;16.60;;
1460;SDS011;724;49.910;12.530;2024-02-15T12:43:29;17.40;;;16.50;;
1460;SDS011;724;49.910;12.530;2024-02-15T12:45:58;17.60;;;16.70;;
1460;SDS011;724;49.910;12.530;2024-02-15T12:48:25;17.70;;;16.80;;
1460;SDS011;724;49.910;12.530;2024-02-15T12:50:52;17.80;;;16.90;;
1460;SDS011;724;49.910;12.530;2024-02-15T12:53:22;17.63;;;16.73;;
1460;SDS011;724;49.910;12.530;2024-02-15T12:55:52;17.70;;;16.80;;
1460;SDS011;724;49.910;12.530;2024-02-15T12:58:21;17.98;;;17.08;;
1460;SDS011;724;49.910;12.530;2024-02-15T13:00:49;17.90;;;17.00;;
1460;SDS011;724;49.910;12.530;2024-02-15T13:03:17;18.00;;;17.10;;
1460;SDS011;724;49.910;12.530;2024-02-15T13:05:44;17.80;;;16.90;;
1460;SDS011;724;49.910;12.530;2024-02-15T13:08:13;18.10;;;17.20;;
1460;SDS011;724;49.910;12.530;2024-02-15T13:10:43;18.38;;;17.48;;
1460;SDS011;724;49.910;12.530;2024-02-15T13:13:10;18.13;;;17.23;;
1460;SDS011;724;49.910;12.530;2024-02-15T13:15:37;18.40;;;17.50;;
1460;SDS011;724;49.910;12.530;2024-02-15T13:18:04;18.30;;;17.40;;
1460;SDS011;724;49.910;12.530;2024-02-15T13:20:32;18.10;;;17.20;;
1460;SDS011;724;49.910;12.530;2024-02-15T13:23:00;18.20;;;17.30;;
1460;SDS011;724;49.910;12.530;2024-02-15T13:25:33;18.30;;;17.40;;
1460;SDS011;724;49.910;12.530;2024-02-15T13:28:01;17.88;;;16.98;;
1460;SDS011;724;49.910;12.530;2024-02-15T13:30:29;18.15;;;17.25;;
1460;SDS011;724;49.910;12.530;2024-02-15T13:32:56;18.15;;;17.25;;
1460;SDS011;724;49.910;12.530;2024-02-15T13:35:23;17.90;;;17.00;;
1460;SDS011;724;49.910;12.530;2024-02-15T13:37:52;18.10;;;17.20;;
1460;SDS011;724;49.910;12.530;2024-02-15T13:40:20;17.90;;;17.00;;
1460;SDS011;724;49.910;12.530;2024-02-15T13:42:49;18.17;;;17.27;;
1460;SDS011;724;49.910;12.530;2024-02-15T13:45:19;18.10;;;17.20;;
1460;SDS011;724;49.910;12.530;2024-02-15T13:47:47;18.40;;;17.50;;
1460;SDS011;724;49.910;12.530;2024-02-15T13:50:15;18.30;;;17.40;;
1460;SDS011;724;49.910;12.530;2024-02-15T13:52:43;18.70;;;17.80;;
1460;SDS011;724;49.910;12.530;2024-02-15T13:55:12;18.60;;;17.70;;
1460;SDS011;724;49.910;12.530;2024-02-15T13:57:39;18.40;;;17.50;;
1460;SDS011;724;49.910;12.530;2024-02-15T14:00:07;18.30;;;17.40;;
1460;SDS011;724;49.910;12.530;2024-02-15T14:02:38;18.50;;;17.60;;
1460;SDS011;724;49.910;12.530;2024-02-15T14:05:06;18.60;;;17.70;;
1460;SDS011;724;49.910;12.530;2024-02-15T14:07:33;18.48;;;17.58;;
1460;SDS011;724;49.910;12.530;2024-02-15T14:10:00;18.45;;;17.55;;
1460;SDS011;724;49.910;12.530;2024-02-15T14:12:29;18.25;;;17.35;;
1460;SDS011;724;49.910;12.530;2024-02-15T14:14:55;17.90;;;17.00;;
1460;SDS011;724;49.910;12.530;2024-02-15T14:17:22;18.40;;;17.50;;
1460;SDS011;724;49.910;12.530;2024-02-15T14:19:49;18.27;;;17.38;;
1460;SDS011;724;49.910;12.530;2024-02-15T14:22:16;18.20;;;17.30;;
1460;SDS011;724;49.910;12.530;2024-02-15T14:24:42;18.40;;;17.50;;
1460;SDS011;724;49.910;12.530;2024-02-15T14:27:09;18.50;;;17.60;;
1460;SDS011;724;49.910;12.530;2024-02-15T14:29:40;18.33;;;17.42;;
1460;SDS011;724;49.910;12.530;2024-02-15T14:32:29;18.40;;;17.50;;
1460;SDS011;724;49.910;12.530;2024-02-15T14:35:13;18.20;;;17.30;;
1460;SDS011;724;49.910;12.530;2024-02-15T14:37:41;18.40;;;17.50;;
1460;SDS011;724;49.910;12.530;2024-02-15T14:40:09;18.63;;;17.73;;
1460;SDS011;724;49.910;12.530;2024-02-15T14:42:39;18.70;;;17.80;;
1460;SDS011;724;49.910;12.530;2024-02-15T14:45:08;18.50;;;17.60;;
1460;SDS011;724;49.910;12.530;2024-02-15T14:47:35;18.70;;;17.80;;
1460;SDS011;724;49.910;12.530;2024-02-15T14:50:03;18.60;;;17.70;;
1460;SDS011;724;49.910;12.530;2024-02-15T14:52:33;18.50;;;17.60;;
1460;SDS011;724;49.910;12.530;2024-02-15T14:55:00;18.40;;;17.50;;
1460;SDS011;724;49.910;12.530;2024-02-15T14:57:30;18.75;;;17.85;;
1460;SDS011;724;49.910;12.530;2024-02-15T14:59:57;18.50;;;17.60;;
1460;SDS011;724;49.910;12.530;2024-02-15T15:02:25;18.40;;;17.50;;
1460;SDS011;724;49.910;12.530;2024-02-15T15:04:52;18.23;;;17.33;;
1460;SDS011;724;49.910;12.530;2024-02-15T15:07:44;18.30;;;17.40;;